Terminal Aerodrome Forecast
Issued by NWS

Home | Current Version | Previous Version | Text Only | Print | Product List | Glossary On
Versions: 1 2 3 4 5 6 7 8 9 10 11 12 13 14 15 16 17 18 19 20 21 22 23 24 25 26 27 28 29 30 31 32 33
705
FTUS41 KCAR 282334 AAA
TAFFVE
TAF AMD
KFVE 282334Z 2900/2924 22004KT P6SM OVC015
     FM290800 24007KT P6SM BKN005
     FM291400 24010G22KT P6SM BKN120
     FM291800 26020G30KT P6SM VCSH BKN040=

USA.gov is the U.S. government's official web portal to all federal, state and local government web resources and services.